createdAt,value
2022-11-12T00:00:34.425Z,6.76
2022-11-12T00:01:34.466Z,6.74
2022-11-12T00:02:34.406Z,6.74
2022-11-12T00:03:34.396Z,6.74
2022-11-12T00:04:34.377Z,6.77
2022-11-12T00:05:34.374Z,6.84
2022-11-12T00:06:34.387Z,6.84
2022-11-12T00:07:34.467Z,6.79
2022-11-12T00:08:34.345Z,6.79
2022-11-12T00:09:34.331Z,6.76
2022-11-12T00:10:34.315Z,6.77
2022-11-12T00:11:34.326Z,6.76
2022-11-12T00:12:34.295Z,6.73
2022-11-12T00:13:34.295Z,6.71
2022-11-12T00:14:34.285Z,6.71
2022-11-12T00:15:34.378Z,6.71
2022-11-12T00:16:34.245Z,6.67
2022-11-12T00:17:34.467Z,6.64
2022-11-12T00:18:34.237Z,6.71
2022-11-12T00:19:34.238Z,6.81
2022-11-12T00:20:34.222Z,6.84
2022-11-12T00:21:34.187Z,6.88
2022-11-12T00:22:34.182Z,6.87
2022-11-12T00:23:34.196Z,6.84
2022-11-12T00:24:34.176Z,6.88
2022-11-12T00:25:34.215Z,6.89
2022-11-12T00:26:34.139Z,6.95
2022-11-12T00:27:34.128Z,6.97
2022-11-12T00:28:37.987Z,6.95
2022-11-12T00:29:34.117Z,6.97
2022-11-12T00:30:34.099Z,6.95
2022-11-12T00:31:34.078Z,6.88
2022-11-12T00:32:34.098Z,6.85
2022-11-12T00:33:34.168Z,6.84
2022-11-12T00:34:34.056Z,6.84
2022-11-12T00:35:34.040Z,6.80
2022-11-12T00:36:34.018Z,6.80
2022-11-12T00:37:34.020Z,6.80
2022-11-12T00:38:34.016Z,6.85
2022-11-12T00:39:33.998Z,6.88
2022-11-12T00:40:33.989Z,6.95
2022-11-12T00:41:33.980Z,6.97
2022-11-12T00:42:33.970Z,6.98
2022-11-12T00:43:33.960Z,7.02
2022-11-12T00:44:33.929Z,7.03
2022-11-12T00:45:33.930Z,7.06
2022-11-12T00:46:33.940Z,7.07
2022-11-12T00:47:33.901Z,7.10
2022-11-12T00:48:33.900Z,7.13
2022-11-12T00:49:33.889Z,7.13
2022-11-12T00:50:33.871Z,7.15
2022-11-12T00:51:33.860Z,7.13
2022-11-12T00:52:33.871Z,7.15
2022-11-12T00:53:33.855Z,7.13
2022-11-12T00:54:33.831Z,7.15
2022-11-12T00:55:33.818Z,7.13
2022-11-12T00:56:35.642Z,7.21
2022-11-12T00:57:33.822Z,7.17
2022-11-12T00:58:33.790Z,7.17
2022-11-12T00:59:33.777Z,7.17
2022-11-12T01:00:33.753Z,7.17
2022-11-12T01:01:33.835Z,7.16
2022-11-12T01:02:40.733Z,7.16
2022-11-12T01:03:34.891Z,7.17
2022-11-12T01:04:33.721Z,7.20
2022-11-12T01:05:33.722Z,7.21
2022-11-12T01:06:33.780Z,7.16
2022-11-12T01:07:33.711Z,7.16
2022-11-12T01:08:33.727Z,7.20
2022-11-12T01:09:33.679Z,7.17
2022-11-12T01:10:33.662Z,7.17
2022-11-12T01:11:33.685Z,7.16
2022-11-12T01:12:33.646Z,7.13
2022-11-12T01:13:33.642Z,7.15
2022-11-12T01:14:33.603Z,7.15
2022-11-12T01:15:33.605Z,7.17
2022-11-12T01:16:33.595Z,7.16
2022-11-12T01:17:33.584Z,7.13
2022-11-12T01:18:33.553Z,7.15
2022-11-12T01:19:33.563Z,7.13
2022-11-12T01:20:33.543Z,7.13
2022-11-12T01:21:33.531Z,7.12
2022-11-12T01:22:33.555Z,7.10
2022-11-12T01:23:33.525Z,7.10
2022-11-12T01:24:33.523Z,7.15
2022-11-12T01:25:33.494Z,7.13
2022-11-12T01:26:33.496Z,7.13
2022-11-12T01:27:33.489Z,7.10
2022-11-12T01:28:33.458Z,7.09
2022-11-12T01:29:33.458Z,7.09
2022-11-12T01:30:33.435Z,7.07
2022-11-12T01:31:33.439Z,7.05
2022-11-12T01:32:33.416Z,7.05
2022-11-12T01:33:33.425Z,7.02
2022-11-12T01:34:33.397Z,7.02
2022-11-12T01:35:33.385Z,6.97
2022-11-12T01:36:33.366Z,6.95
2022-11-12T01:37:33.397Z,6.89
2022-11-12T01:38:33.347Z,6.89
2022-11-12T01:39:33.336Z,6.89
2022-11-12T01:40:33.365Z,6.87
2022-11-12T01:41:33.327Z,6.87
2022-11-12T01:42:33.315Z,6.89
2022-11-12T01:43:33.319Z,6.87
2022-11-12T01:44:33.294Z,6.87
2022-11-12T01:45:33.277Z,6.81
2022-11-12T01:46:33.276Z,6.80
2022-11-12T01:47:33.257Z,6.76
2022-11-12T01:48:33.238Z,6.73
2022-11-12T01:49:33.230Z,6.71
2022-11-12T01:50:33.228Z,6.70
2022-11-12T01:51:33.203Z,6.67
2022-11-12T01:52:33.200Z,6.66
2022-11-12T01:53:33.178Z,6.61
2022-11-12T01:54:33.179Z,6.59
2022-11-12T01:55:33.147Z,6.61
2022-11-12T01:56:33.149Z,6.61
2022-11-12T01:57:34.958Z,6.62
2022-11-12T01:58:33.117Z,6.61
2022-11-12T01:59:33.109Z,6.58
2022-11-12T02:00:33.097Z,6.58
2022-11-12T02:01:33.182Z,6.54
2022-11-12T02:02:33.114Z,6.52
2022-11-12T02:03:33.078Z,6.52
2022-11-12T02:04:33.059Z,6.54
2022-11-12T02:05:33.048Z,6.58
2022-11-12T02:06:33.057Z,6.61
2022-11-12T02:07:33.044Z,6.61
2022-11-12T02:08:33.022Z,6.59
2022-11-12T02:09:32.998Z,6.56
2022-11-12T02:10:32.999Z,6.56
2022-11-12T02:11:32.979Z,6.59
2022-11-12T02:12:32.977Z,6.61
2022-11-12T02:13:32.950Z,6.64
2022-11-12T02:14:32.960Z,6.66
2022-11-12T02:15:32.929Z,6.67
2022-11-12T02:16:32.919Z,6.62
2022-11-12T02:17:32.920Z,6.64
2022-11-12T02:18:32.909Z,6.62
2022-11-12T02:19:32.901Z,6.58
2022-11-12T02:20:32.890Z,6.58
2022-11-12T02:21:32.864Z,6.59
2022-11-12T02:22:32.875Z,6.56
2022-11-12T02:23:32.850Z,6.55
2022-11-12T02:24:32.842Z,6.54
2022-11-12T02:25:32.824Z,6.52
2022-11-12T02:26:32.903Z,6.54
2022-11-12T02:27:32.842Z,6.52
2022-11-12T02:28:32.791Z,6.51
2022-11-12T02:29:32.781Z,6.48
2022-11-12T02:30:32.792Z,6.54
2022-11-12T02:31:32.766Z,6.49
2022-11-12T02:32:32.772Z,6.49
2022-11-12T02:33:32.732Z,6.49
2022-11-12T02:34:32.733Z,6.48
2022-11-12T02:35:32.728Z,6.46
2022-11-12T02:36:32.701Z,6.44
2022-11-12T02:37:32.701Z,6.46
2022-11-12T02:38:32.696Z,6.46
2022-11-12T02:39:32.670Z,6.43
2022-11-12T02:40:32.661Z,6.44
2022-11-12T02:41:32.652Z,6.41
2022-11-12T02:42:32.646Z,6.46
2022-11-12T02:43:32.622Z,6.46
2022-11-12T02:44:32.631Z,6.48
2022-11-12T02:45:32.618Z,6.46
2022-11-12T02:46:32.607Z,6.46
2022-11-12T02:47:32.892Z,6.41
2022-11-12T02:48:32.574Z,6.41
2022-11-12T02:49:32.597Z,6.41
2022-11-12T02:50:32.574Z,6.43
2022-11-12T02:51:32.547Z,6.43
2022-11-12T02:52:40.254Z,6.41
2022-11-12T02:53:32.514Z,6.40
2022-11-12T02:54:32.505Z,6.37
2022-11-12T02:55:32.494Z,6.36
2022-11-12T02:56:32.483Z,6.34
2022-11-12T02:57:32.475Z,6.33
2022-11-12T02:58:32.453Z,6.31
2022-11-12T02:59:32.444Z,6.30
2022-11-12T03:00:32.424Z,6.30
2022-11-12T03:01:32.529Z,6.31
2022-11-12T03:02:32.426Z,6.31
2022-11-12T03:03:32.392Z,6.28
2022-11-12T03:04:32.385Z,6.31
2022-11-12T03:05:32.382Z,6.31
2022-11-12T03:06:32.373Z,6.30
2022-11-12T03:07:32.345Z,6.28
2022-11-12T03:08:32.344Z,6.30
2022-11-12T03:09:32.325Z,6.27
2022-11-12T03:10:32.336Z,6.28
2022-11-12T03:11:32.319Z,6.31
2022-11-12T03:12:32.295Z,6.30
2022-11-12T03:13:32.295Z,6.30
2022-11-12T03:14:32.294Z,6.31
2022-11-12T03:15:32.254Z,6.30
2022-11-12T03:16:32.266Z,6.25
2022-11-12T03:17:32.236Z,6.22
2022-11-12T03:18:32.234Z,6.27
2022-11-12T03:19:32.215Z,6.25
2022-11-12T03:20:32.216Z,6.25
2022-11-12T03:21:32.207Z,6.22
2022-11-12T03:22:32.186Z,6.21
2022-11-12T03:23:32.170Z,6.19
2022-11-12T03:24:32.216Z,6.19
2022-11-12T03:25:32.225Z,6.19
2022-11-12T03:26:35.802Z,6.21
2022-11-12T03:27:32.125Z,6.19
2022-11-12T03:28:32.131Z,6.19
2022-11-12T03:29:32.121Z,6.18
2022-11-12T03:30:32.120Z,6.18
2022-11-12T03:31:32.109Z,6.15
2022-11-12T03:32:32.088Z,6.15
2022-11-12T03:33:32.058Z,6.14
2022-11-12T03:34:32.057Z,6.15
2022-11-12T03:35:32.044Z,6.14
2022-11-12T03:36:32.037Z,6.14
2022-11-12T03:37:32.038Z,6.11
2022-11-12T03:38:32.018Z,6.11
2022-11-12T03:39:31.998Z,6.12
2022-11-12T03:40:32.000Z,6.11
2022-11-12T03:41:31.989Z,6.11
2022-11-12T03:42:31.961Z,6.11
2022-11-12T03:43:31.948Z,6.08
2022-11-12T03:44:31.943Z,6.11
2022-11-12T03:45:31.977Z,6.11
2022-11-12T03:46:31.928Z,6.14
2022-11-12T03:47:31.918Z,6.12
2022-11-12T03:48:31.900Z,6.08
2022-11-12T03:49:31.887Z,6.06
2022-11-12T03:50:31.871Z,6.09
2022-11-12T03:51:31.870Z,6.15
2022-11-12T03:52:31.851Z,6.14
2022-11-12T03:53:31.850Z,6.15
2022-11-12T03:54:31.838Z,6.14
2022-11-12T03:55:31.826Z,6.12
2022-11-12T03:56:31.836Z,6.11
2022-11-12T03:57:31.803Z,6.12
2022-11-12T03:58:31.925Z,6.12
2022-11-12T03:59:31.770Z,6.11
2022-11-12T04:00:31.766Z,6.12
2022-11-12T04:01:31.856Z,6.12
2022-11-12T04:02:31.755Z,6.12
2022-11-12T04:03:31.731Z,6.12
2022-11-12T04:04:31.729Z,6.11
2022-11-12T04:05:31.710Z,6.09
2022-11-12T04:06:31.720Z,6.09
2022-11-12T04:07:31.688Z,6.06
2022-11-12T04:08:31.681Z,6.04
2022-11-12T04:09:31.659Z,6.03
2022-11-12T04:10:31.660Z,6.00
2022-11-12T04:11:31.671Z,5.97
2022-11-12T04:12:31.636Z,6.00
2022-11-12T04:13:31.613Z,5.97
2022-11-12T04:14:31.613Z,5.96
2022-11-12T04:15:31.611Z,5.94
2022-11-12T04:16:31.623Z,5.94
2022-11-12T04:17:31.598Z,5.99
2022-11-12T04:18:31.584Z,5.99
2022-11-12T04:19:31.577Z,6.00
2022-11-12T04:20:31.562Z,6.03
2022-11-12T04:21:31.550Z,6.04
2022-11-12T04:22:31.543Z,6.04
2022-11-12T04:23:31.516Z,6.01
2022-11-12T04:24:31.504Z,6.00
2022-11-12T04:25:31.493Z,6.01
2022-11-12T04:26:31.496Z,6.00
2022-11-12T04:27:31.483Z,6.01
2022-11-12T04:28:31.466Z,6.00
2022-11-12T04:29:36.369Z,5.99
2022-11-12T04:30:32.434Z,5.99
2022-11-12T04:31:31.436Z,5.97
2022-11-12T04:32:31.436Z,5.97
2022-11-12T04:33:31.414Z,5.93
2022-11-12T04:34:31.458Z,5.93
2022-11-12T04:35:31.381Z,5.94
2022-11-12T04:36:31.374Z,5.91
2022-11-12T04:37:31.356Z,5.96
2022-11-12T04:38:31.365Z,5.97
2022-11-12T04:39:31.335Z,5.96
2022-11-12T04:40:31.332Z,5.96
2022-11-12T04:41:31.324Z,5.96
2022-11-12T04:42:31.296Z,5.93
2022-11-12T04:43:31.284Z,5.90
2022-11-12T04:44:31.286Z,5.89
2022-11-12T04:45:31.269Z,5.90
2022-11-12T04:46:31.264Z,5.89
2022-11-12T04:47:31.250Z,5.86
2022-11-12T04:48:31.236Z,5.83
2022-11-12T04:49:31.224Z,5.85
2022-11-12T04:50:31.219Z,5.86
2022-11-12T04:51:31.205Z,5.82
2022-11-12T04:52:31.206Z,5.83
2022-11-12T04:53:31.176Z,5.82
2022-11-12T04:54:31.169Z,5.79
2022-11-12T04:55:31.173Z,5.78
2022-11-12T04:56:31.182Z,5.75
2022-11-12T04:57:31.127Z,5.74
2022-11-12T04:58:31.138Z,5.72
2022-11-12T04:59:31.107Z,5.68
2022-11-12T05:00:31.135Z,5.67
2022-11-12T05:01:31.264Z,5.67
2022-11-12T05:02:31.080Z,5.65
2022-11-12T05:03:31.066Z,5.65
2022-11-12T05:04:31.076Z,5.63
2022-11-12T05:05:33.770Z,5.64
2022-11-12T05:06:31.054Z,5.65
2022-11-12T05:07:31.032Z,5.67
2022-11-12T05:08:31.019Z,5.68
2022-11-12T05:09:31.016Z,5.72
2022-11-12T05:10:31.008Z,5.67
2022-11-12T05:11:30.988Z,5.68
2022-11-12T05:12:30.978Z,5.67
2022-11-12T05:13:30.961Z,5.67
2022-11-12T05:14:30.949Z,5.68
2022-11-12T05:15:30.931Z,5.65
2022-11-12T05:16:30.959Z,5.64
2022-11-12T05:17:30.920Z,5.64
2022-11-12T05:18:30.899Z,5.63
2022-11-12T05:19:30.897Z,5.60
2022-11-12T05:20:30.887Z,5.60
2022-11-12T05:21:30.880Z,5.58
2022-11-12T05:22:43.394Z,5.60
2022-11-12T05:23:31.844Z,5.60
2022-11-12T05:24:41.403Z,5.58
2022-11-12T05:25:31.834Z,5.57
2022-11-12T05:26:30.831Z,5.56
2022-11-12T05:27:30.797Z,5.54
2022-11-12T05:28:30.790Z,5.54
2022-11-12T05:29:30.795Z,5.54
2022-11-12T05:30:30.828Z,5.49
2022-11-12T05:31:30.779Z,5.51
2022-11-12T05:32:30.760Z,5.54
2022-11-12T05:33:30.731Z,5.49
2022-11-12T05:34:30.733Z,5.51
2022-11-12T05:35:30.710Z,5.51
2022-11-12T05:36:30.709Z,5.54
2022-11-12T05:37:30.690Z,5.51
2022-11-12T05:38:30.861Z,5.49
2022-11-12T05:39:30.667Z,5.46
2022-11-12T05:40:30.880Z,5.45
2022-11-12T05:41:45.225Z,5.43
2022-11-12T05:42:31.632Z,5.39
2022-11-12T05:43:30.624Z,5.40
2022-11-12T05:44:30.624Z,5.40
2022-11-12T05:45:30.590Z,5.43
2022-11-12T05:46:30.612Z,5.42
2022-11-12T05:47:30.581Z,5.40
2022-11-12T05:48:31.429Z,5.39
2022-11-12T05:49:30.551Z,5.36
2022-11-12T05:50:39.835Z,5.36
2022-11-12T05:51:31.554Z,5.39
2022-11-12T05:52:30.559Z,5.38
2022-11-12T05:53:30.512Z,5.35
2022-11-12T05:54:30.500Z,5.33
2022-11-12T05:55:34.443Z,5.31
2022-11-12T05:56:31.501Z,5.30
2022-11-12T05:57:30.529Z,5.30
2022-11-12T05:58:30.473Z,5.28
2022-11-12T05:59:30.479Z,5.31
2022-11-12T06:00:30.423Z,5.33
2022-11-12T06:01:30.634Z,5.35
2022-11-12T06:02:30.487Z,5.35
2022-11-12T06:03:30.417Z,5.33
2022-11-12T06:04:30.401Z,5.33
2022-11-12T06:05:30.558Z,5.38
2022-11-12T06:06:30.381Z,5.36
2022-11-12T06:07:30.356Z,5.36
2022-11-12T06:08:30.342Z,5.36
2022-11-12T06:09:30.324Z,5.36
2022-11-12T06:10:30.323Z,5.36
2022-11-12T06:11:30.325Z,5.38
2022-11-12T06:12:30.302Z,5.38
2022-11-12T06:13:30.295Z,5.38
2022-11-12T06:14:30.294Z,5.40
2022-11-12T06:15:32.844Z,5.40
2022-11-12T06:16:31.288Z,5.45
2022-11-12T06:17:30.247Z,5.40
2022-11-12T06:18:30.233Z,5.39
2022-11-12T06:19:30.243Z,5.39
2022-11-12T06:20:30.220Z,5.43
2022-11-12T06:21:30.221Z,5.43
2022-11-12T06:22:30.198Z,5.42
2022-11-12T06:23:30.173Z,5.40
2022-11-12T06:24:35.140Z,5.40
2022-11-12T06:25:31.155Z,5.39
2022-11-12T06:26:30.175Z,5.43
2022-11-12T06:27:30.155Z,5.45
2022-11-12T06:28:30.382Z,5.51
2022-11-12T06:29:30.129Z,5.48
2022-11-12T06:30:30.103Z,5.48
2022-11-12T06:31:30.095Z,5.48
2022-11-12T06:32:30.084Z,5.54
2022-11-12T06:33:30.065Z,5.56
2022-11-12T06:34:30.072Z,5.54
2022-11-12T06:35:30.045Z,5.54
2022-11-12T06:36:30.043Z,5.56
2022-11-12T06:37:30.047Z,5.58
2022-11-12T06:38:30.087Z,5.53
2022-11-12T06:39:29.994Z,5.53
2022-11-12T06:40:30.012Z,5.51
2022-11-12T06:41:30.031Z,5.51
2022-11-12T06:42:29.974Z,5.53
2022-11-12T06:43:29.964Z,5.54
2022-11-12T06:44:29.957Z,5.54
2022-11-12T06:45:29.933Z,5.53
2022-11-12T06:46:29.946Z,5.51
2022-11-12T06:47:29.952Z,5.51
2022-11-12T06:48:29.908Z,5.51
2022-11-12T06:49:29.887Z,5.51
2022-11-12T06:50:29.882Z,5.51
2022-11-12T06:51:29.886Z,5.49
2022-11-12T06:52:29.860Z,5.49
2022-11-12T06:53:29.847Z,5.48
2022-11-12T06:54:29.842Z,5.43
2022-11-12T06:55:29.836Z,5.43
2022-11-12T06:56:29.968Z,5.42
2022-11-12T06:57:29.800Z,5.43
2022-11-12T06:58:29.787Z,5.43
2022-11-12T06:59:29.781Z,5.45
2022-11-12T07:00:29.767Z,5.45
2022-11-12T07:01:29.844Z,5.46
2022-11-12T07:02:29.749Z,5.45
2022-11-12T07:03:29.728Z,5.45
2022-11-12T07:04:29.731Z,5.43
2022-11-12T07:05:29.709Z,5.45
2022-11-12T07:06:29.708Z,5.46
2022-11-12T07:07:29.870Z,5.45
2022-11-12T07:08:29.960Z,5.42
2022-11-12T07:09:29.688Z,5.42
2022-11-12T07:10:29.716Z,5.42
2022-11-12T07:11:29.711Z,5.45
2022-11-12T07:12:29.630Z,5.45
2022-11-12T07:13:29.619Z,5.46
2022-11-12T07:14:29.642Z,5.46
2022-11-12T07:15:29.614Z,5.46
2022-11-12T07:16:29.610Z,5.46
2022-11-12T07:17:29.600Z,5.48
2022-11-12T07:18:29.808Z,5.51
2022-11-12T07:19:29.562Z,5.51
2022-11-12T07:20:29.594Z,5.51
2022-11-12T07:21:29.541Z,5.53
2022-11-12T07:22:29.535Z,5.54
2022-11-12T07:23:29.524Z,5.60
2022-11-12T07:24:29.500Z,5.58
2022-11-12T07:25:29.499Z,5.60
2022-11-12T07:26:29.501Z,5.63
2022-11-12T07:27:29.460Z,5.65
2022-11-12T07:28:29.785Z,5.67
2022-11-12T07:29:46.192Z,5.72
2022-11-12T07:30:30.438Z,5.71
2022-11-12T07:31:29.621Z,5.72
2022-11-12T07:32:29.425Z,5.74
2022-11-12T07:33:29.402Z,5.76
2022-11-12T07:34:29.403Z,5.78
2022-11-12T07:35:29.385Z,5.79
2022-11-12T07:36:29.381Z,5.81
2022-11-12T07:37:29.364Z,5.83
2022-11-12T07:38:29.584Z,5.85
2022-11-12T07:39:29.338Z,5.90
2022-11-12T07:40:29.343Z,5.90
2022-11-12T07:41:29.341Z,5.90
2022-11-12T07:42:29.295Z,5.89
2022-11-12T07:43:29.294Z,5.89
2022-11-12T07:44:29.288Z,5.91
2022-11-12T07:45:29.262Z,5.94
2022-11-12T07:46:29.286Z,5.93
2022-11-12T07:47:29.253Z,5.96
2022-11-12T07:48:29.498Z,6.01
2022-11-12T07:49:29.225Z,6.03
2022-11-12T07:50:29.213Z,6.09
2022-11-12T07:51:29.232Z,6.11
2022-11-12T07:52:29.245Z,6.12
2022-11-12T07:53:29.181Z,6.15
2022-11-12T07:54:29.169Z,6.17
2022-11-12T07:55:29.157Z,6.19
2022-11-12T07:56:29.166Z,6.21
2022-11-12T07:57:29.135Z,6.25
2022-11-12T07:58:29.404Z,6.31
2022-11-12T07:59:29.112Z,6.33
2022-11-12T08:00:29.096Z,6.37
2022-11-12T08:01:29.186Z,6.36
2022-11-12T08:02:29.091Z,6.40
2022-11-12T08:03:29.066Z,6.43
2022-11-12T08:04:29.065Z,6.48
2022-11-12T08:05:29.119Z,6.49
2022-11-12T08:06:29.054Z,6.51
2022-11-12T08:07:29.212Z,6.49
2022-11-12T08:08:29.464Z,6.51
2022-11-12T08:09:28.999Z,6.54
2022-11-12T08:10:29.005Z,6.59
2022-11-12T08:11:29.006Z,6.61
2022-11-12T08:12:28.978Z,6.62
2022-11-12T08:13:28.967Z,6.64
2022-11-12T08:14:28.965Z,6.66
2022-11-12T08:15:28.947Z,6.67
2022-11-12T08:16:28.937Z,6.69
2022-11-12T08:17:28.917Z,6.69
2022-11-12T08:18:29.315Z,6.70
2022-11-12T08:19:28.909Z,6.73
2022-11-12T08:20:28.887Z,6.80
2022-11-12T08:21:28.924Z,6.84
2022-11-12T08:22:28.869Z,6.88
2022-11-12T08:23:28.857Z,6.92
2022-11-12T08:24:28.867Z,6.91
2022-11-12T08:25:28.834Z,6.91
2022-11-12T08:26:28.839Z,6.95
2022-11-12T08:27:28.813Z,6.94
2022-11-12T08:28:29.110Z,6.94
2022-11-12T08:29:28.828Z,6.97
2022-11-12T08:30:28.782Z,6.98
2022-11-12T08:31:28.770Z,7.02
2022-11-12T08:32:28.758Z,7.03
2022-11-12T08:33:28.750Z,7.07
2022-11-12T08:34:28.732Z,7.09
2022-11-12T08:35:28.728Z,7.16
2022-11-12T08:36:28.711Z,7.15
2022-11-12T08:37:28.709Z,7.15
2022-11-12T08:38:28.980Z,7.13
2022-11-12T08:39:28.681Z,7.15
2022-11-12T08:40:28.681Z,7.23
2022-11-12T08:41:28.670Z,7.24
2022-11-12T08:42:28.642Z,7.31
2022-11-12T08:43:28.629Z,7.37
2022-11-12T08:44:28.630Z,7.40
2022-11-12T08:45:28.620Z,7.39
2022-11-12T08:46:28.611Z,7.40
2022-11-12T08:47:28.584Z,7.42
2022-11-12T08:48:28.836Z,7.40
2022-11-12T08:49:28.566Z,7.42
2022-11-12T08:50:28.572Z,7.46
2022-11-12T08:51:28.544Z,7.55
2022-11-12T08:52:28.551Z,7.57
2022-11-12T08:53:28.554Z,7.57
2022-11-12T08:54:28.593Z,7.58
2022-11-12T08:55:28.526Z,7.63
2022-11-12T08:56:28.506Z,7.67
2022-11-12T08:57:28.472Z,7.67
2022-11-12T08:58:28.935Z,7.64
2022-11-12T08:59:28.455Z,7.68
2022-11-12T09:00:28.462Z,7.77
2022-11-12T09:01:28.489Z,7.85
2022-11-12T09:02:28.444Z,7.86
2022-11-12T09:03:28.404Z,7.86
2022-11-12T09:04:28.415Z,7.87
2022-11-12T09:05:28.415Z,7.89
2022-11-12T09:06:28.384Z,7.87
2022-11-12T09:07:48.952Z,7.89
2022-11-12T09:08:29.592Z,7.95
2022-11-12T09:09:28.996Z,8.02
2022-11-12T09:10:28.354Z,8.02
2022-11-12T09:11:28.393Z,8.04
2022-11-12T09:12:28.429Z,8.07
2022-11-12T09:13:28.372Z,8.08
2022-11-12T09:14:28.307Z,8.05
2022-11-12T09:15:37.542Z,8.07
2022-11-12T09:16:29.276Z,8.04
2022-11-12T09:17:28.266Z,8.05
2022-11-12T09:18:28.516Z,8.05
2022-11-12T09:19:28.247Z,8.08
2022-11-12T09:20:28.258Z,8.08
2022-11-12T09:21:28.218Z,8.11
2022-11-12T09:22:28.227Z,8.12
2022-11-12T09:23:28.442Z,8.16
2022-11-12T09:24:28.285Z,8.20
2022-11-12T09:25:28.235Z,8.23
2022-11-12T09:26:28.182Z,8.25
2022-11-12T09:27:28.191Z,8.26
2022-11-12T09:28:28.457Z,8.29
2022-11-12T09:29:28.440Z,8.30
2022-11-12T09:30:28.135Z,8.33
2022-11-12T09:31:28.368Z,8.38
2022-11-12T09:32:28.284Z,8.45
2022-11-12T09:33:28.180Z,8.52
2022-11-12T09:34:28.080Z,8.56
2022-11-12T09:35:28.091Z,8.56
2022-11-12T09:36:28.048Z,8.61
2022-11-12T09:37:28.064Z,8.65
2022-11-12T09:38:28.587Z,8.68
2022-11-12T09:39:28.085Z,8.73
2022-11-12T09:40:28.021Z,8.77
2022-11-12T09:41:28.118Z,8.80
2022-11-12T09:42:27.979Z,8.91
2022-11-12T09:43:27.984Z,8.95
2022-11-12T09:44:31.692Z,8.99
2022-11-12T09:45:28.951Z,9.04
2022-11-12T09:46:28.701Z,9.08
2022-11-12T09:47:27.946Z,9.08
2022-11-12T09:48:28.226Z,9.13
2022-11-12T09:49:28.872Z,9.18
2022-11-12T09:50:27.907Z,9.20
2022-11-12T09:51:27.892Z,9.26
2022-11-12T09:52:27.923Z,9.35
2022-11-12T09:53:27.874Z,9.33
2022-11-12T09:54:27.842Z,9.35
2022-11-12T09:55:27.854Z,9.35
2022-11-12T09:56:27.829Z,9.43
2022-11-12T09:57:28.025Z,9.46
2022-11-12T09:58:28.092Z,9.54
2022-11-12T09:59:27.803Z,9.57
2022-11-12T10:00:27.794Z,9.61
2022-11-12T10:01:27.813Z,9.65
2022-11-12T10:02:27.765Z,9.68
2022-11-12T10:03:27.774Z,9.72
2022-11-12T10:04:27.737Z,9.78
2022-11-12T10:05:27.906Z,9.87
2022-11-12T10:06:27.727Z,9.93
2022-11-12T10:07:27.755Z,9.91
2022-11-12T10:08:27.961Z,9.94
2022-11-12T10:09:27.715Z,9.89
2022-11-12T10:10:27.696Z,9.87
2022-11-12T10:11:27.701Z,9.91
2022-11-12T10:12:27.656Z,9.93
2022-11-12T10:13:28.607Z,9.96
2022-11-12T10:14:27.629Z,10.02
2022-11-12T10:15:28.327Z,10.04
2022-11-12T10:16:27.619Z,10.08
2022-11-12T10:17:27.610Z,10.11
2022-11-12T10:18:28.027Z,10.20
2022-11-12T10:19:27.589Z,10.25
2022-11-12T10:20:27.589Z,10.27
2022-11-12T10:21:27.561Z,10.29
2022-11-12T10:22:27.611Z,10.30
2022-11-12T10:23:27.524Z,10.27
2022-11-12T10:24:27.530Z,10.22
2022-11-12T10:25:27.514Z,10.20
2022-11-12T10:26:27.503Z,10.25
2022-11-12T10:27:27.480Z,10.32
2022-11-12T10:28:27.997Z,10.30
2022-11-12T10:29:27.482Z,10.32
2022-11-12T10:30:27.461Z,10.40
2022-11-12T10:31:27.451Z,10.44
2022-11-12T10:32:27.468Z,10.47
2022-11-12T10:33:27.413Z,10.52
2022-11-12T10:34:27.416Z,10.56
2022-11-12T10:35:27.415Z,10.56
2022-11-12T10:36:27.404Z,10.53
2022-11-12T10:37:27.415Z,10.55
2022-11-12T10:38:27.803Z,10.60
2022-11-12T10:39:27.366Z,10.60
2022-11-12T10:40:27.375Z,10.63
2022-11-12T10:41:27.354Z,10.61
2022-11-12T10:42:27.346Z,10.66
2022-11-12T10:43:27.328Z,10.70
2022-11-12T10:44:27.308Z,10.78
2022-11-12T10:45:27.415Z,10.78
2022-11-12T10:46:27.278Z,10.78
2022-11-12T10:47:27.997Z,10.81
2022-11-12T10:48:27.855Z,10.81
2022-11-12T10:49:27.290Z,10.82
2022-11-12T10:50:27.260Z,10.78
2022-11-12T10:51:27.218Z,10.79
2022-11-12T10:52:27.221Z,10.79
2022-11-12T10:53:27.191Z,10.82
2022-11-12T10:54:27.191Z,10.81
2022-11-12T10:55:27.200Z,10.85
2022-11-12T10:56:27.177Z,10.88
2022-11-12T10:57:27.152Z,10.85
2022-11-12T10:58:27.444Z,10.88
2022-11-12T10:59:27.134Z,10.92
2022-11-12T11:00:27.125Z,10.92
2022-11-12T11:01:28.902Z,10.97
2022-11-12T11:02:28.187Z,11.03
2022-11-12T11:03:27.086Z,11.09
2022-11-12T11:04:27.106Z,11.21
2022-11-12T11:05:27.086Z,11.28
2022-11-12T11:06:27.066Z,11.32
2022-11-12T11:07:27.048Z,11.28
2022-11-12T11:08:30.387Z,11.28
2022-11-12T11:09:28.031Z,11.33
2022-11-12T11:10:27.049Z,11.32
2022-11-12T11:11:27.019Z,11.36
2022-11-12T11:12:27.001Z,11.42
2022-11-12T11:13:26.972Z,11.42
2022-11-12T11:14:26.988Z,11.47
2022-11-12T11:15:26.961Z,11.52
2022-11-12T11:16:26.981Z,11.61
2022-11-12T11:17:26.930Z,11.62
2022-11-12T11:18:27.172Z,11.67
2022-11-12T11:19:26.909Z,11.72
2022-11-12T11:20:26.911Z,11.69
2022-11-12T11:21:26.903Z,11.70
2022-11-12T11:22:26.893Z,11.75
2022-11-12T11:23:26.874Z,11.85
2022-11-12T11:24:26.924Z,11.83
2022-11-12T11:25:26.853Z,11.85
2022-11-12T11:26:26.841Z,11.90
2022-11-12T11:27:26.826Z,11.95
2022-11-12T11:28:27.159Z,12.02
2022-11-12T11:29:26.807Z,12.09
2022-11-12T11:30:26.806Z,12.12
2022-11-12T11:31:26.806Z,12.19
2022-11-12T11:32:26.767Z,12.23
2022-11-12T11:33:26.766Z,12.31
2022-11-12T11:34:26.765Z,12.35
2022-11-12T11:35:26.744Z,12.41
2022-11-12T11:36:26.726Z,12.50
2022-11-12T11:37:26.733Z,12.57
2022-11-12T11:38:27.023Z,12.60
2022-11-12T11:39:26.689Z,12.57
2022-11-12T11:40:26.702Z,12.56
2022-11-12T11:41:26.683Z,12.56
2022-11-12T11:42:26.673Z,12.59
2022-11-12T11:43:26.645Z,12.62
2022-11-12T11:44:26.753Z,12.65
2022-11-12T11:45:26.629Z,12.65
2022-11-12T11:46:26.622Z,12.65
2022-11-12T11:47:34.286Z,12.62
2022-11-12T11:48:27.815Z,12.65
2022-11-12T11:49:26.596Z,12.68
2022-11-12T11:50:26.583Z,12.70
2022-11-12T11:51:26.572Z,12.72
2022-11-12T11:52:26.553Z,12.77
2022-11-12T11:53:26.545Z,12.82
2022-11-12T11:54:26.525Z,12.85
2022-11-12T11:55:26.543Z,12.89
2022-11-12T11:56:26.507Z,12.92
2022-11-12T11:57:26.506Z,12.92
2022-11-12T11:58:26.942Z,12.92
2022-11-12T11:59:26.478Z,12.95
2022-11-12T12:00:26.468Z,12.97
2022-11-12T12:01:26.457Z,13.03
2022-11-12T12:02:26.447Z,13.10
2022-11-12T12:03:31.740Z,13.17
2022-11-12T12:04:27.417Z,13.19
2022-11-12T12:05:26.432Z,13.14
2022-11-12T12:06:26.390Z,13.19
2022-11-12T12:07:26.400Z,13.17
2022-11-12T12:08:26.788Z,13.15
2022-11-12T12:09:26.392Z,13.23
2022-11-12T12:10:40.231Z,13.32
2022-11-12T12:11:27.371Z,13.38
2022-11-12T12:12:26.333Z,13.42
2022-11-12T12:13:26.334Z,13.44
2022-11-12T12:14:26.315Z,13.45
2022-11-12T12:15:26.313Z,13.46
2022-11-12T12:16:26.306Z,13.44
2022-11-12T12:17:31.598Z,13.44
2022-11-12T12:18:27.671Z,13.45
2022-11-12T12:19:26.256Z,13.42
2022-11-12T12:20:26.255Z,13.38
2022-11-12T12:21:26.238Z,13.33
2022-11-12T12:22:26.239Z,13.39
2022-11-12T12:23:26.249Z,13.39
2022-11-12T12:24:26.198Z,13.41
2022-11-12T12:25:26.219Z,13.45
2022-11-12T12:26:26.179Z,13.49
2022-11-12T12:27:26.171Z,13.49
2022-11-12T12:28:26.482Z,13.51
2022-11-12T12:29:26.157Z,13.54
2022-11-12T12:30:26.141Z,13.57
2022-11-12T12:31:26.151Z,13.60
2022-11-12T12:32:26.114Z,13.60
2022-11-12T12:33:26.113Z,13.66
2022-11-12T12:34:26.091Z,13.69
2022-11-12T12:35:26.093Z,13.70
2022-11-12T12:36:26.066Z,13.70
2022-11-12T12:37:26.064Z,13.75
2022-11-12T12:38:26.397Z,13.77
2022-11-12T12:39:26.044Z,13.77
2022-11-12T12:40:26.035Z,13.79
2022-11-12T12:41:26.025Z,13.81
2022-11-12T12:42:26.004Z,13.82
2022-11-12T12:43:26.008Z,13.81
2022-11-12T12:44:25.996Z,13.82
2022-11-12T12:45:26.035Z,13.85
2022-11-12T12:46:25.967Z,13.96
2022-11-12T12:47:25.959Z,13.91
2022-11-12T12:48:26.204Z,13.84
2022-11-12T12:49:25.961Z,13.89
2022-11-12T12:50:25.929Z,13.97
2022-11-12T12:51:25.909Z,13.99
2022-11-12T12:52:25.907Z,14.06
2022-11-12T12:53:25.903Z,14.07
2022-11-12T12:54:25.882Z,14.10
2022-11-12T12:55:25.882Z,14.06
2022-11-12T12:56:25.864Z,14.03
2022-11-12T12:57:25.843Z,14.02
2022-11-12T12:58:26.155Z,13.99
2022-11-12T12:59:25.824Z,13.97
2022-11-12T13:00:25.915Z,13.99
2022-11-12T13:01:25.855Z,14.00
2022-11-12T13:02:25.795Z,14.03
2022-11-12T13:03:25.775Z,14.07
2022-11-12T13:04:25.766Z,14.10
2022-11-12T13:05:25.768Z,14.15
2022-11-12T13:06:25.737Z,14.21
2022-11-12T13:07:25.794Z,14.28
2022-11-12T13:08:26.314Z,14.36
2022-11-12T13:09:25.708Z,14.40
2022-11-12T13:10:25.709Z,14.39
2022-11-12T13:11:25.700Z,14.40
2022-11-12T13:12:25.898Z,14.40